sensor_id;sensor_type;location;lat;lon;timestamp;temperature;humidity
29353;DHT22;16344;50.364;8.944;2023-07-13T00:00:12;22.50;99.90
29353;DHT22;16344;50.364;8.944;2023-07-13T00:02:41;22.60;99.90
29353;DHT22;16344;50.364;8.944;2023-07-13T00:05:07;22.50;99.90
29353;DHT22;16344;50.364;8.944;2023-07-13T00:07:33;22.60;99.90
29353;DHT22;16344;50.364;8.944;2023-07-13T00:09:59;22.70;99.90
29353;DHT22;16344;50.364;8.944;2023-07-13T00:12:26;22.50;99.90
29353;DHT22;16344;50.364;8.944;2023-07-13T00:14:51;22.30;99.90
29353;DHT22;16344;50.364;8.944;2023-07-13T00:17:17;22.40;99.90
29353;DHT22;16344;50.364;8.944;2023-07-13T00:19:42;22.50;99.90
29353;DHT22;16344;50.364;8.944;2023-07-13T00:22:08;22.50;99.90
29353;DHT22;16344;50.364;8.944;2023-07-13T00:24:33;22.40;99.90
29353;DHT22;16344;50.364;8.944;2023-07-13T00:27:01;22.30;99.90
29353;DHT22;16344;50.364;8.944;2023-07-13T00:29:27;22.20;99.90
29353;DHT22;16344;50.364;8.944;2023-07-13T00:31:52;22.30;99.90
29353;DHT22;16344;50.364;8.944;2023-07-13T00:34:18;22.30;99.90
29353;DHT22;16344;50.364;8.944;2023-07-13T00:36:43;22.20;99.90
29353;DHT22;16344;50.364;8.944;2023-07-13T00:39:09;22.20;99.90
29353;DHT22;16344;50.364;8.944;2023-07-13T00:41:34;22.20;99.90
29353;DHT22;16344;50.364;8.944;2023-07-13T00:44:01;22.20;99.90
29353;DHT22;16344;50.364;8.944;2023-07-13T00:46:34;22.20;99.90
29353;DHT22;16344;50.364;8.944;2023-07-13T00:49:02;22.20;99.90
29353;DHT22;16344;50.364;8.944;2023-07-13T00:51:57;22.00;99.90
29353;DHT22;16344;50.364;8.944;2023-07-13T00:54:30;22.00;99.90
29353;DHT22;16344;50.364;8.944;2023-07-13T00:57:00;21.90;99.90
29353;DHT22;16344;50.364;8.944;2023-07-13T00:59:27;22.00;99.90
29353;DHT22;16344;50.364;8.944;2023-07-13T01:01:53;22.00;99.90
29353;DHT22;16344;50.364;8.944;2023-07-13T01:04:19;21.80;99.90
29353;DHT22;16344;50.364;8.944;2023-07-13T01:06:45;21.70;99.90
29353;DHT22;16344;50.364;8.944;2023-07-13T01:09:13;21.70;99.90
29353;DHT22;16344;50.364;8.944;2023-07-13T01:11:39;21.60;99.90
29353;DHT22;16344;50.364;8.944;2023-07-13T01:14:07;21.60;99.90
29353;DHT22;16344;50.364;8.944;2023-07-13T01:16:35;21.50;99.90
29353;DHT22;16344;50.364;8.944;2023-07-13T01:19:01;21.60;99.90
29353;DHT22;16344;50.364;8.944;2023-07-13T01:21:31;21.50;99.90
29353;DHT22;16344;50.364;8.944;2023-07-13T01:23:58;21.40;99.90
29353;DHT22;16344;50.364;8.944;2023-07-13T01:26:23;21.30;99.90
29353;DHT22;16344;50.364;8.944;2023-07-13T01:28:49;21.30;99.90
29353;DHT22;16344;50.364;8.944;2023-07-13T01:31:15;21.20;99.90
29353;DHT22;16344;50.364;8.944;2023-07-13T01:33:40;21.00;99.90
29353;DHT22;16344;50.364;8.944;2023-07-13T01:36:07;20.90;99.90
29353;DHT22;16344;50.364;8.944;2023-07-13T01:38:34;21.00;99.90
29353;DHT22;16344;50.364;8.944;2023-07-13T01:41:00;21.00;99.90
29353;DHT22;16344;50.364;8.944;2023-07-13T01:43:25;20.90;99.90
29353;DHT22;16344;50.364;8.944;2023-07-13T01:45:51;20.80;99.90
29353;DHT22;16344;50.364;8.944;2023-07-13T01:48:16;20.90;99.90
29353;DHT22;16344;50.364;8.944;2023-07-13T01:50:42;20.90;99.90
29353;DHT22;16344;50.364;8.944;2023-07-13T01:53:08;20.90;99.90
29353;DHT22;16344;50.364;8.944;2023-07-13T01:55:35;20.70;99.90
29353;DHT22;16344;50.364;8.944;2023-07-13T01:58:01;20.80;99.90
29353;DHT22;16344;50.364;8.944;2023-07-13T02:00:27;20.70;99.90
29353;DHT22;16344;50.364;8.944;2023-07-13T02:02:52;20.70;99.90
29353;DHT22;16344;50.364;8.944;2023-07-13T02:05:18;20.60;99.90
29353;DHT22;16344;50.364;8.944;2023-07-13T02:07:44;20.60;99.90
29353;DHT22;16344;50.364;8.944;2023-07-13T02:10:10;20.60;99.90
29353;DHT22;16344;50.364;8.944;2023-07-13T02:12:36;20.60;99.90
29353;DHT22;16344;50.364;8.944;2023-07-13T02:15:03;20.50;99.90
29353;DHT22;16344;50.364;8.944;2023-07-13T02:17:28;20.70;99.90
29353;DHT22;16344;50.364;8.944;2023-07-13T02:19:54;20.60;99.90
29353;DHT22;16344;50.364;8.944;2023-07-13T02:22:20;20.50;99.90
29353;DHT22;16344;50.364;8.944;2023-07-13T02:24:46;20.60;99.90
29353;DHT22;16344;50.364;8.944;2023-07-13T02:27:12;20.50;99.90
29353;DHT22;16344;50.364;8.944;2023-07-13T02:29:37;20.40;99.90
29353;DHT22;16344;50.364;8.944;2023-07-13T02:32:03;20.30;99.90
29353;DHT22;16344;50.364;8.944;2023-07-13T02:34:28;20.20;99.90
29353;DHT22;16344;50.364;8.944;2023-07-13T02:36:54;20.40;99.90
29353;DHT22;16344;50.364;8.944;2023-07-13T02:39:19;20.40;99.90
29353;DHT22;16344;50.364;8.944;2023-07-13T02:41:45;20.40;99.90
29353;DHT22;16344;50.364;8.944;2023-07-13T02:44:13;20.40;99.90
29353;DHT22;16344;50.364;8.944;2023-07-13T02:46:39;20.50;99.90
29353;DHT22;16344;50.364;8.944;2023-07-13T02:49:05;20.50;99.90
29353;DHT22;16344;50.364;8.944;2023-07-13T02:51:31;20.60;99.90
29353;DHT22;16344;50.364;8.944;2023-07-13T02:54:02;20.70;99.90
29353;DHT22;16344;50.364;8.944;2023-07-13T02:56:29;20.70;99.90
29353;DHT22;16344;50.364;8.944;2023-07-13T02:58:55;20.60;99.90
29353;DHT22;16344;50.364;8.944;2023-07-13T03:01:21;20.50;99.90
29353;DHT22;16344;50.364;8.944;2023-07-13T03:03:47;20.50;99.90
29353;DHT22;16344;50.364;8.944;2023-07-13T03:06:14;20.50;99.90
29353;DHT22;16344;50.364;8.944;2023-07-13T03:08:40;20.40;99.90
29353;DHT22;16344;50.364;8.944;2023-07-13T03:11:08;20.40;99.90
29353;DHT22;16344;50.364;8.944;2023-07-13T03:13:34;20.30;99.90
29353;DHT22;16344;50.364;8.944;2023-07-13T03:16:00;20.50;99.90
29353;DHT22;16344;50.364;8.944;2023-07-13T03:18:27;20.40;99.90
29353;DHT22;16344;50.364;8.944;2023-07-13T03:20:52;20.30;99.90
29353;DHT22;16344;50.364;8.944;2023-07-13T03:23:19;20.20;99.90
29353;DHT22;16344;50.364;8.944;2023-07-13T03:25:45;20.20;99.90
29353;DHT22;16344;50.364;8.944;2023-07-13T03:28:11;20.20;99.90
29353;DHT22;16344;50.364;8.944;2023-07-13T03:30:37;20.30;99.90
29353;DHT22;16344;50.364;8.944;2023-07-13T03:33:03;20.40;99.90
29353;DHT22;16344;50.364;8.944;2023-07-13T03:35:28;20.30;99.90
29353;DHT22;16344;50.364;8.944;2023-07-13T03:37:54;20.20;99.90
29353;DHT22;16344;50.364;8.944;2023-07-13T03:40:20;20.20;99.90
29353;DHT22;16344;50.364;8.944;2023-07-13T03:42:45;20.20;99.90
29353;DHT22;16344;50.364;8.944;2023-07-13T03:45:11;20.20;99.90
29353;DHT22;16344;50.364;8.944;2023-07-13T03:47:36;20.20;99.90
29353;DHT22;16344;50.364;8.944;2023-07-13T03:50:02;20.30;99.90
29353;DHT22;16344;50.364;8.944;2023-07-13T03:52:28;20.30;99.90
29353;DHT22;16344;50.364;8.944;2023-07-13T03:54:54;20.30;99.90
29353;DHT22;16344;50.364;8.944;2023-07-13T03:57:19;20.50;99.90
29353;DHT22;16344;50.364;8.944;2023-07-13T03:59:45;20.60;99.90
29353;DHT22;16344;50.364;8.944;2023-07-13T04:02:10;20.60;99.90
29353;DHT22;16344;50.364;8.944;2023-07-13T04:04:36;20.60;99.90
29353;DHT22;16344;50.364;8.944;2023-07-13T04:07:01;20.60;99.90
29353;DHT22;16344;50.364;8.944;2023-07-13T04:09:27;20.40;99.90
29353;DHT22;16344;50.364;8.944;2023-07-13T04:11:52;20.30;99.90
29353;DHT22;16344;50.364;8.944;2023-07-13T04:14:18;20.30;99.90
29353;DHT22;16344;50.364;8.944;2023-07-13T04:16:43;20.40;99.90
29353;DHT22;16344;50.364;8.944;2023-07-13T04:19:10;20.50;99.90
29353;DHT22;16344;50.364;8.944;2023-07-13T04:21:36;20.50;99.90
29353;DHT22;16344;50.364;8.944;2023-07-13T04:24:02;20.60;99.90
29353;DHT22;16344;50.364;8.944;2023-07-13T04:26:28;21.00;99.90
29353;DHT22;16344;50.364;8.944;2023-07-13T04:28:55;21.40;99.90
29353;DHT22;16344;50.364;8.944;2023-07-13T04:31:21;21.80;99.90
29353;DHT22;16344;50.364;8.944;2023-07-13T04:33:47;22.10;99.90
29353;DHT22;16344;50.364;8.944;2023-07-13T04:36:12;22.50;99.90
29353;DHT22;16344;50.364;8.944;2023-07-13T04:38:38;23.10;99.90
29353;DHT22;16344;50.364;8.944;2023-07-13T04:41:06;23.80;99.90
29353;DHT22;16344;50.364;8.944;2023-07-13T04:43:32;24.40;99.90
29353;DHT22;16344;50.364;8.944;2023-07-13T04:46:06;24.60;99.90
29353;DHT22;16344;50.364;8.944;2023-07-13T04:48:32;24.70;99.90
29353;DHT22;16344;50.364;8.944;2023-07-13T04:50:58;24.70;99.90
29353;DHT22;16344;50.364;8.944;2023-07-13T04:53:25;24.80;99.90
29353;DHT22;16344;50.364;8.944;2023-07-13T04:55:51;25.30;99.90
29353;DHT22;16344;50.364;8.944;2023-07-13T04:58:17;25.70;99.90
29353;DHT22;16344;50.364;8.944;2023-07-13T05:00:42;26.20;99.90
29353;DHT22;16344;50.364;8.944;2023-07-13T05:03:08;26.80;99.90
29353;DHT22;16344;50.364;8.944;2023-07-13T05:05:33;26.60;99.90
29353;DHT22;16344;50.364;8.944;2023-07-13T05:07:59;26.70;99.90
29353;DHT22;16344;50.364;8.944;2023-07-13T05:10:25;27.10;99.90
29353;DHT22;16344;50.364;8.944;2023-07-13T05:12:50;27.30;99.90
29353;DHT22;16344;50.364;8.944;2023-07-13T05:15:17;27.40;99.90
29353;DHT22;16344;50.364;8.944;2023-07-13T05:17:49;27.90;99.90
29353;DHT22;16344;50.364;8.944;2023-07-13T05:20:15;28.00;99.90
29353;DHT22;16344;50.364;8.944;2023-07-13T05:22:42;27.90;99.90
29353;DHT22;16344;50.364;8.944;2023-07-13T05:25:08;28.20;99.90
29353;DHT22;16344;50.364;8.944;2023-07-13T05:27:34;28.70;99.90
29353;DHT22;16344;50.364;8.944;2023-07-13T05:30:00;28.90;99.90
29353;DHT22;16344;50.364;8.944;2023-07-13T05:32:26;28.50;99.90
29353;DHT22;16344;50.364;8.944;2023-07-13T05:34:51;28.50;99.90
29353;DHT22;16344;50.364;8.944;2023-07-13T05:37:17;28.90;99.90
29353;DHT22;16344;50.364;8.944;2023-07-13T05:39:43;29.40;99.90
29353;DHT22;16344;50.364;8.944;2023-07-13T05:42:08;29.80;99.90
29353;DHT22;16344;50.364;8.944;2023-07-13T05:44:34;30.30;99.90
29353;DHT22;16344;50.364;8.944;2023-07-13T05:46:59;30.80;99.90
29353;DHT22;16344;50.364;8.944;2023-07-13T05:49:25;30.70;99.90
29353;DHT22;16344;50.364;8.944;2023-07-13T05:51:50;30.60;99.90
29353;DHT22;16344;50.364;8.944;2023-07-13T05:54:16;30.30;99.90
29353;DHT22;16344;50.364;8.944;2023-07-13T05:56:42;30.40;99.90
29353;DHT22;16344;50.364;8.944;2023-07-13T05:59:07;30.10;99.90
29353;DHT22;16344;50.364;8.944;2023-07-13T06:01:33;30.00;99.90
29353;DHT22;16344;50.364;8.944;2023-07-13T06:03:59;30.10;99.90
29353;DHT22;16344;50.364;8.944;2023-07-13T06:06:24;30.40;99.90
29353;DHT22;16344;50.364;8.944;2023-07-13T06:08:50;31.00;99.90
29353;DHT22;16344;50.364;8.944;2023-07-13T06:11:18;31.00;99.90
29353;DHT22;16344;50.364;8.944;2023-07-13T06:13:44;31.00;99.90
29353;DHT22;16344;50.364;8.944;2023-07-13T06:16:11;30.60;99.90
29353;DHT22;16344;50.364;8.944;2023-07-13T06:18:38;29.90;99.90
29353;DHT22;16344;50.364;8.944;2023-07-13T06:21:09;28.50;99.90
29353;DHT22;16344;50.364;8.944;2023-07-13T06:23:35;28.00;99.90
29353;DHT22;16344;50.364;8.944;2023-07-13T06:26:02;27.80;99.90
29353;DHT22;16344;50.364;8.944;2023-07-13T06:28:28;28.30;99.90
29353;DHT22;16344;50.364;8.944;2023-07-13T06:30:54;28.40;99.90
29353;DHT22;16344;50.364;8.944;2023-07-13T06:33:20;28.00;99.90
29353;DHT22;16344;50.364;8.944;2023-07-13T06:35:45;27.90;99.90
29353;DHT22;16344;50.364;8.944;2023-07-13T06:38:11;28.10;99.90
29353;DHT22;16344;50.364;8.944;2023-07-13T06:40:36;28.30;99.90
29353;DHT22;16344;50.364;8.944;2023-07-13T06:43:02;28.40;99.90
29353;DHT22;16344;50.364;8.944;2023-07-13T06:45:27;28.10;99.90
29353;DHT22;16344;50.364;8.944;2023-07-13T06:47:53;28.40;99.90
29353;DHT22;16344;50.364;8.944;2023-07-13T06:50:18;28.60;99.90
29353;DHT22;16344;50.364;8.944;2023-07-13T06:52:44;28.40;99.90
29353;DHT22;16344;50.364;8.944;2023-07-13T06:55:09;28.30;99.90
29353;DHT22;16344;50.364;8.944;2023-07-13T06:57:35;27.80;99.90
29353;DHT22;16344;50.364;8.944;2023-07-13T07:00:00;28.00;99.90
29353;DHT22;16344;50.364;8.944;2023-07-13T07:02:26;28.20;99.90
29353;DHT22;16344;50.364;8.944;2023-07-13T07:04:51;28.40;99.90
29353;DHT22;16344;50.364;8.944;2023-07-13T07:07:17;28.80;99.90
29353;DHT22;16344;50.364;8.944;2023-07-13T07:09:42;28.90;99.90
29353;DHT22;16344;50.364;8.944;2023-07-13T07:12:08;28.70;99.90
29353;DHT22;16344;50.364;8.944;2023-07-13T07:14:34;28.40;99.90
29353;DHT22;16344;50.364;8.944;2023-07-13T07:17:00;28.20;99.90
29353;DHT22;16344;50.364;8.944;2023-07-13T07:19:25;28.50;99.90
29353;DHT22;16344;50.364;8.944;2023-07-13T07:21:51;28.80;99.90
29353;DHT22;16344;50.364;8.944;2023-07-13T07:24:16;29.00;99.90
29353;DHT22;16344;50.364;8.944;2023-07-13T07:26:42;28.60;99.90
29353;DHT22;16344;50.364;8.944;2023-07-13T07:29:07;28.90;99.90
29353;DHT22;16344;50.364;8.944;2023-07-13T07:31:33;29.00;99.90
29353;DHT22;16344;50.364;8.944;2023-07-13T07:33:58;29.10;99.90
29353;DHT22;16344;50.364;8.944;2023-07-13T07:36:24;29.30;99.90
29353;DHT22;16344;50.364;8.944;2023-07-13T07:38:49;29.30;99.90
29353;DHT22;16344;50.364;8.944;2023-07-13T07:41:15;29.30;99.90
29353;DHT22;16344;50.364;8.944;2023-07-13T07:43:40;29.40;99.90
29353;DHT22;16344;50.364;8.944;2023-07-13T07:46:06;29.70;99.90
29353;DHT22;16344;50.364;8.944;2023-07-13T07:48:32;29.30;99.90
29353;DHT22;16344;50.364;8.944;2023-07-13T07:50:57;29.00;99.90
29353;DHT22;16344;50.364;8.944;2023-07-13T07:53:23;28.70;99.90
29353;DHT22;16344;50.364;8.944;2023-07-13T07:55:48;28.60;99.90
29353;DHT22;16344;50.364;8.944;2023-07-13T07:58:14;28.80;99.90
29353;DHT22;16344;50.364;8.944;2023-07-13T08:00:40;28.70;99.90
29353;DHT22;16344;50.364;8.944;2023-07-13T08:03:06;28.80;99.90
29353;DHT22;16344;50.364;8.944;2023-07-13T08:05:31;28.60;99.90
29353;DHT22;16344;50.364;8.944;2023-07-13T08:07:57;28.70;99.90
29353;DHT22;16344;50.364;8.944;2023-07-13T08:10:22;28.20;99.90
29353;DHT22;16344;50.364;8.944;2023-07-13T08:12:48;28.00;99.90
29353;DHT22;16344;50.364;8.944;2023-07-13T08:15:16;27.60;99.90
29353;DHT22;16344;50.364;8.944;2023-07-13T08:17:41;27.90;99.90
29353;DHT22;16344;50.364;8.944;2023-07-13T08:20:07;28.00;99.90
29353;DHT22;16344;50.364;8.944;2023-07-13T08:22:34;28.20;99.90
29353;DHT22;16344;50.364;8.944;2023-07-13T08:25:00;28.20;99.90
29353;DHT22;16344;50.364;8.944;2023-07-13T08:27:28;28.50;99.90
29353;DHT22;16344;50.364;8.944;2023-07-13T08:29:54;28.50;99.90
29353;DHT22;16344;50.364;8.944;2023-07-13T08:32:21;27.90;99.90
29353;DHT22;16344;50.364;8.944;2023-07-13T08:34:47;27.80;99.90
29353;DHT22;16344;50.364;8.944;2023-07-13T08:37:13;27.60;99.90
29353;DHT22;16344;50.364;8.944;2023-07-13T08:39:39;27.60;99.90
29353;DHT22;16344;50.364;8.944;2023-07-13T08:42:09;27.80;99.90
29353;DHT22;16344;50.364;8.944;2023-07-13T08:47:16;28.00;99.90
29353;DHT22;16344;50.364;8.944;2023-07-13T08:49:44;28.10;99.90
29353;DHT22;16344;50.364;8.944;2023-07-13T08:52:39;27.80;99.90
29353;DHT22;16344;50.364;8.944;2023-07-13T08:55:20;27.80;99.90
29353;DHT22;16344;50.364;8.944;2023-07-13T08:57:50;27.60;99.90
29353;DHT22;16344;50.364;8.944;2023-07-13T09:00:18;27.30;99.90
29353;DHT22;16344;50.364;8.944;2023-07-13T09:02:58;26.80;99.90
29353;DHT22;16344;50.364;8.944;2023-07-13T09:10:44;26.60;99.90
29353;DHT22;16344;50.364;8.944;2023-07-13T09:15:51;27.00;99.90
29353;DHT22;16344;50.364;8.944;2023-07-13T09:18:34;27.10;99.90
29353;DHT22;16344;50.364;8.944;2023-07-13T09:21:05;27.20;99.90
29353;DHT22;16344;50.364;8.944;2023-07-13T09:23:34;27.30;99.90
29353;DHT22;16344;50.364;8.944;2023-07-13T09:26:11;27.40;99.90
29353;DHT22;16344;50.364;8.944;2023-07-13T09:29:06;27.50;99.90
29353;DHT22;16344;50.364;8.944;2023-07-13T09:31:42;27.40;99.90
29353;DHT22;16344;50.364;8.944;2023-07-13T09:34:12;27.20;99.90
29353;DHT22;16344;50.364;8.944;2023-07-13T09:36:38;27.40;99.90
29353;DHT22;16344;50.364;8.944;2023-07-13T09:39:30;27.40;99.90
29353;DHT22;16344;50.364;8.944;2023-07-13T09:44:39;27.60;99.90
29353;DHT22;16344;50.364;8.944;2023-07-13T09:47:19;27.60;99.90
29353;DHT22;16344;50.364;8.944;2023-07-13T09:49:48;27.60;99.90
29353;DHT22;16344;50.364;8.944;2023-07-13T09:52:16;27.70;99.90
29353;DHT22;16344;50.364;8.944;2023-07-13T09:54:46;27.60;99.90
29353;DHT22;16344;50.364;8.944;2023-07-13T09:57:19;27.60;99.90
29353;DHT22;16344;50.364;8.944;2023-07-13T09:59:49;27.50;99.90
29353;DHT22;16344;50.364;8.944;2023-07-13T10:02:35;27.50;99.90
29353;DHT22;16344;50.364;8.944;2023-07-13T10:05:13;27.50;99.90
29353;DHT22;16344;50.364;8.944;2023-07-13T10:07:42;27.40;99.90
29353;DHT22;16344;50.364;8.944;2023-07-13T10:10:21;27.40;99.90
29353;DHT22;16344;50.364;8.944;2023-07-13T10:12:47;27.60;99.90
29353;DHT22;16344;50.364;8.944;2023-07-13T10:15:22;27.80;99.90
29353;DHT22;16344;50.364;8.944;2023-07-13T10:17:50;28.00;99.90
29353;DHT22;16344;50.364;8.944;2023-07-13T10:20:16;27.70;99.90
29353;DHT22;16344;50.364;8.944;2023-07-13T10:22:54;27.50;99.90
29353;DHT22;16344;50.364;8.944;2023-07-13T10:25:24;27.40;99.90
29353;DHT22;16344;50.364;8.944;2023-07-13T10:27:54;27.30;99.90
29353;DHT22;16344;50.364;8.944;2023-07-13T10:30:35;27.40;99.90
29353;DHT22;16344;50.364;8.944;2023-07-13T10:33:02;27.20;99.90
29353;DHT22;16344;50.364;8.944;2023-07-13T10:35:29;27.20;99.90
29353;DHT22;16344;50.364;8.944;2023-07-13T10:38:06;27.40;99.90
29353;DHT22;16344;50.364;8.944;2023-07-13T10:40:41;27.70;99.90
29353;DHT22;16344;50.364;8.944;2023-07-13T10:43:36;27.70;99.90
29353;DHT22;16344;50.364;8.944;2023-07-13T10:46:06;27.90;99.90
29353;DHT22;16344;50.364;8.944;2023-07-13T10:48:34;27.90;99.90
29353;DHT22;16344;50.364;8.944;2023-07-13T10:51:04;28.10;99.90
29353;DHT22;16344;50.364;8.944;2023-07-13T10:53:34;28.10;99.90
29353;DHT22;16344;50.364;8.944;2023-07-13T10:56:23;28.10;99.90
29353;DHT22;16344;50.364;8.944;2023-07-13T11:01:58;27.80;99.90
29353;DHT22;16344;50.364;8.944;2023-07-13T11:04:26;28.20;99.90
29353;DHT22;16344;50.364;8.944;2023-07-13T11:06:57;28.40;99.90
29353;DHT22;16344;50.364;8.944;2023-07-13T11:09:35;28.40;99.90
29353;DHT22;16344;50.364;8.944;2023-07-13T11:12:18;28.40;99.90
29353;DHT22;16344;50.364;8.944;2023-07-13T11:17:47;27.70;99.90
29353;DHT22;16344;50.364;8.944;2023-07-13T11:22:49;27.90;99.90
29353;DHT22;16344;50.364;8.944;2023-07-13T11:25:25;27.90;99.90
29353;DHT22;16344;50.364;8.944;2023-07-13T11:30:36;28.00;99.90
29353;DHT22;16344;50.364;8.944;2023-07-13T11:36:06;28.10;99.90
29353;DHT22;16344;50.364;8.944;2023-07-13T11:38:42;28.00;99.90
29353;DHT22;16344;50.364;8.944;2023-07-13T11:41:55;27.70;99.90
29353;DHT22;16344;50.364;8.944;2023-07-13T11:44:21;27.70;99.90
29353;DHT22;16344;50.364;8.944;2023-07-13T11:46:56;27.60;99.90
29353;DHT22;16344;50.364;8.944;2023-07-13T11:49:28;27.50;99.90
29353;DHT22;16344;50.364;8.944;2023-07-13T11:51:54;27.40;99.90
29353;DHT22;16344;50.364;8.944;2023-07-13T11:54:32;27.40;99.90
29353;DHT22;16344;50.364;8.944;2023-07-13T11:57:07;27.40;99.90
29353;DHT22;16344;50.364;8.944;2023-07-13T11:59:39;27.40;99.90
29353;DHT22;16344;50.364;8.944;2023-07-13T12:02:16;27.40;99.90
29353;DHT22;16344;50.364;8.944;2023-07-13T12:04:43;27.30;99.90
29353;DHT22;16344;50.364;8.944;2023-07-13T12:07:17;27.20;99.90
29353;DHT22;16344;50.364;8.944;2023-07-13T12:09:43;27.10;99.90
29353;DHT22;16344;50.364;8.944;2023-07-13T12:12:18;27.20;99.90
29353;DHT22;16344;50.364;8.944;2023-07-13T12:14:44;27.10;99.90
29353;DHT22;16344;50.364;8.944;2023-07-13T12:17:19;27.20;99.90
29353;DHT22;16344;50.364;8.944;2023-07-13T12:19:44;27.20;99.90
29353;DHT22;16344;50.364;8.944;2023-07-13T12:22:12;27.00;99.90
29353;DHT22;16344;50.364;8.944;2023-07-13T12:24:40;27.10;99.90
29353;DHT22;16344;50.364;8.944;2023-07-13T12:27:13;27.10;99.90
29353;DHT22;16344;50.364;8.944;2023-07-13T12:29:53;27.40;99.90
29353;DHT22;16344;50.364;8.944;2023-07-13T12:32:24;27.50;99.90
29353;DHT22;16344;50.364;8.944;2023-07-13T12:34:55;27.50;99.90
29353;DHT22;16344;50.364;8.944;2023-07-13T12:37:21;27.50;99.90
29353;DHT22;16344;50.364;8.944;2023-07-13T12:39:47;27.30;99.90
29353;DHT22;16344;50.364;8.944;2023-07-13T12:42:28;27.10;99.90
29353;DHT22;16344;50.364;8.944;2023-07-13T12:44:57;26.80;99.90
29353;DHT22;16344;50.364;8.944;2023-07-13T12:47:24;26.90;99.90
29353;DHT22;16344;50.364;8.944;2023-07-13T12:49:54;26.90;99.90
29353;DHT22;16344;50.364;8.944;2023-07-13T12:52:23;27.00;99.90
29353;DHT22;16344;50.364;8.944;2023-07-13T12:54:57;26.90;99.90
29353;DHT22;16344;50.364;8.944;2023-07-13T12:57:23;26.90;99.90
29353;DHT22;16344;50.364;8.944;2023-07-13T12:59:53;27.00;99.90
29353;DHT22;16344;50.364;8.944;2023-07-13T13:02:33;27.10;99.90
29353;DHT22;16344;50.364;8.944;2023-07-13T13:05:02;26.90;99.90
29353;DHT22;16344;50.364;8.944;2023-07-13T13:07:30;26.80;99.90
29353;DHT22;16344;50.364;8.944;2023-07-13T13:09:56;26.80;99.90
29353;DHT22;16344;50.364;8.944;2023-07-13T13:12:22;26.70;99.90
29353;DHT22;16344;50.364;8.944;2023-07-13T13:14:49;26.80;99.90
29353;DHT22;16344;50.364;8.944;2023-07-13T13:17:27;26.90;99.90
29353;DHT22;16344;50.364;8.944;2023-07-13T13:19:54;26.90;99.90
29353;DHT22;16344;50.364;8.944;2023-07-13T13:22:20;27.00;99.90
29353;DHT22;16344;50.364;8.944;2023-07-13T13:24:46;26.90;99.90
29353;DHT22;16344;50.364;8.944;2023-07-13T13:27:16;26.90;99.90
29353;DHT22;16344;50.364;8.944;2023-07-13T13:29:43;27.10;99.90
29353;DHT22;16344;50.364;8.944;2023-07-13T13:32:12;27.00;99.90
29353;DHT22;16344;50.364;8.944;2023-07-13T13:34:38;26.90;99.90
29353;DHT22;16344;50.364;8.944;2023-07-13T13:37:17;26.80;99.90
29353;DHT22;16344;50.364;8.944;2023-07-13T13:39:44;26.70;99.90
29353;DHT22;16344;50.364;8.944;2023-07-13T13:42:10;26.40;99.90
29353;DHT22;16344;50.364;8.944;2023-07-13T13:44:35;26.40;99.90
29353;DHT22;16344;50.364;8.944;2023-07-13T13:47:01;26.40;99.90
29353;DHT22;16344;50.364;8.944;2023-07-13T13:49:29;26.30;99.90
29353;DHT22;16344;50.364;8.944;2023-07-13T13:51:55;26.20;99.90
29353;DHT22;16344;50.364;8.944;2023-07-13T13:54:22;26.30;99.90
29353;DHT22;16344;50.364;8.944;2023-07-13T13:56:50;26.20;99.90
29353;DHT22;16344;50.364;8.944;2023-07-13T13:59:16;26.20;99.90
29353;DHT22;16344;50.364;8.944;2023-07-13T14:01:46;26.30;99.90
29353;DHT22;16344;50.364;8.944;2023-07-13T14:04:20;26.30;99.90
29353;DHT22;16344;50.364;8.944;2023-07-13T14:06:46;26.20;99.90
29353;DHT22;16344;50.364;8.944;2023-07-13T14:09:14;26.20;99.90
29353;DHT22;16344;50.364;8.944;2023-07-13T14:11:40;26.30;99.90
29353;DHT22;16344;50.364;8.944;2023-07-13T14:14:16;26.40;99.90
29353;DHT22;16344;50.364;8.944;2023-07-13T14:16:43;26.30;99.90
29353;DHT22;16344;50.364;8.944;2023-07-13T14:19:11;26.20;99.90
29353;DHT22;16344;50.364;8.944;2023-07-13T14:21:37;26.20;99.90
29353;DHT22;16344;50.364;8.944;2023-07-13T14:24:03;26.10;99.90
29353;DHT22;16344;50.364;8.944;2023-07-13T14:26:34;26.20;99.90
29353;DHT22;16344;50.364;8.944;2023-07-13T14:29:01;26.30;99.90
29353;DHT22;16344;50.364;8.944;2023-07-13T14:31:27;26.30;99.90
29353;DHT22;16344;50.364;8.944;2023-07-13T14:33:56;26.20;99.90
29353;DHT22;16344;50.364;8.944;2023-07-13T14:36:30;26.20;99.90
29353;DHT22;16344;50.364;8.944;2023-07-13T14:38:58;26.20;99.90
29353;DHT22;16344;50.364;8.944;2023-07-13T14:41:24;26.30;99.90
29353;DHT22;16344;50.364;8.944;2023-07-13T14:43:49;26.20;99.90
29353;DHT22;16344;50.364;8.944;2023-07-13T14:46:28;26.20;99.90
29353;DHT22;16344;50.364;8.944;2023-07-13T14:49:06;26.20;99.90
29353;DHT22;16344;50.364;8.944;2023-07-13T14:51:34;26.20;99.90
29353;DHT22;16344;50.364;8.944;2023-07-13T14:54:04;26.30;99.90
29353;DHT22;16344;50.364;8.944;2023-07-13T14:56:31;26.40;99.90
29353;DHT22;16344;50.364;8.944;2023-07-13T14:58:56;26.60;99.90
29353;DHT22;16344;50.364;8.944;2023-07-13T15:01:23;26.70;99.90
29353;DHT22;16344;50.364;8.944;2023-07-13T15:03:51;26.70;99.90
29353;DHT22;16344;50.364;8.944;2023-07-13T15:06:17;26.70;99.90
29353;DHT22;16344;50.364;8.944;2023-07-13T15:08:45;26.50;99.90
29353;DHT22;16344;50.364;8.944;2023-07-13T15:11:11;26.40;99.90
29353;DHT22;16344;50.364;8.944;2023-07-13T15:13:38;26.50;99.90
29353;DHT22;16344;50.364;8.944;2023-07-13T15:16:05;26.30;99.90
29353;DHT22;16344;50.364;8.944;2023-07-13T15:18:34;26.30;99.90
29353;DHT22;16344;50.364;8.944;2023-07-13T15:21:00;26.20;99.90
29353;DHT22;16344;50.364;8.944;2023-07-13T15:23:28;26.30;99.90
29353;DHT22;16344;50.364;8.944;2023-07-13T15:25:54;26.30;99.90
29353;DHT22;16344;50.364;8.944;2023-07-13T15:28:19;26.20;99.90
29353;DHT22;16344;50.364;8.944;2023-07-13T15:30:47;26.20;99.90
29353;DHT22;16344;50.364;8.944;2023-07-13T15:33:27;26.10;99.90
29353;DHT22;16344;50.364;8.944;2023-07-13T15:35:54;26.00;99.90
29353;DHT22;16344;50.364;8.944;2023-07-13T15:38:23;25.90;99.90
29353;DHT22;16344;50.364;8.944;2023-07-13T15:40:49;26.00;99.90
29353;DHT22;16344;50.364;8.944;2023-07-13T15:43:19;25.90;99.90
29353;DHT22;16344;50.364;8.944;2023-07-13T15:45:46;25.90;99.90
29353;DHT22;16344;50.364;8.944;2023-07-13T15:48:18;25.90;99.90
29353;DHT22;16344;50.364;8.944;2023-07-13T15:50:53;26.50;99.90
29353;DHT22;16344;50.364;8.944;2023-07-13T15:53:28;26.80;99.90
29353;DHT22;16344;50.364;8.944;2023-07-13T15:55:55;27.00;99.90
29353;DHT22;16344;50.364;8.944;2023-07-13T15:58:21;27.00;99.90
29353;DHT22;16344;50.364;8.944;2023-07-13T16:00:46;27.00;99.90
29353;DHT22;16344;50.364;8.944;2023-07-13T16:03:16;26.90;99.90